Time;durP1;ratioP1;P1;durP2;ratioP2;P2;SDS_P1;SDS_P2;PMS_P1;PMS_P2;Temp;Humidity;BMP_temperature;BMP_pressure;BME280_temperature;BME280_humidity;BME280_pressure;Samples;Min_cycle;Max_cycle;Signal;HPM_P1;HPM_P2
2024/04/01 00:21:18;;;;;;;;;;;;;;;;;;;;;
2024/04/01 00:24:48;;;;;;;5.97;5.47;;;14.60;27.90;;;;;;4957588;23;20502;-78
2024/04/01 00:31:17;;;;;;;7.97;5.70;;;14.50;28.20;;;;;;4950631;29;20427;-78
2024/04/01 00:38:05;;;;;;;5.80;5.40;;;14.40;28.60;;;;;;4903822;29;20713;-78
2024/04/01 00:48:10;;;;;;;5.93;5.50;;;14.40;29.10;;;;;;4909385;29;20417;-78
2024/04/01 01:02:32;;;;;;;;;;;;;;;;;;;;;
2024/04/01 01:09:49;;;;;;;;;;;;;;;;;;;;;
2024/04/01 01:13:21;;;;;;;6.70;6.17;;;14.40;28.90;;;;;;4884388;29;20604;-79
2024/04/01 01:17:02;;;;;;;;;;;;;;;;;;;;;
2024/04/01 01:24:08;;;;;;;8.37;5.97;;;14.10;30.10;;;;;;4825173;29;20468;-79
2024/04/01 01:26:47;;;;;;;6.00;5.50;;;14.20;30.00;;;;;;4846471;29;20856;-79
2024/04/01 01:30:34;;;;;;;;;;;;;;;;;;;;;
2024/04/01 01:33:58;;;;;;;6.07;5.47;;;14.10;29.90;;;;;;4840444;29;20450;-79
2024/04/01 01:46:56;;;;;;;;;;;;;;;;;;;;;
2024/04/01 01:53:32;;;;;;;5.63;5.20;;;13.60;32.00;;;;;;4882177;29;20518;-79
2024/04/01 02:00:19;;;;;;;6.80;5.80;;;13.50;32.60;;;;;;4875862;29;20407;-79
2024/04/01 02:07:57;;;;;;;;;;;;;;;;;;;;;
2024/04/01 02:11:13;;;;;;;5.90;5.23;;;13.70;32.70;;;;;;4772328;30;20432;-78
2024/04/01 02:18:20;;;;;;;5.50;5.10;;;13.80;31.90;;;;;;4802596;29;20475;-79
2024/04/01 02:29:13;;;;;;;6.53;5.70;;;14.00;30.00;;;;;;4808119;29;20550;-78
2024/04/01 02:32:04;;;;;;;6.50;5.50;;;14.10;29.90;;;;;;4845078;29;20440;-79
2024/04/01 02:35:19;;;;;;;5.33;4.83;;;14.20;29.70;;;;;;4844752;29;20432;-79
2024/04/01 02:45:09;;;;;;;;;;;;;;;;;;;;;
2024/04/01 02:55:28;;;;;;;;;;;;;;;;;;;;;
2024/04/01 02:59:09;;;;;;;;;;;;;;;;;;;;;
2024/04/01 03:02:00;;;;;;;5.23;4.83;;;13.50;32.30;;;;;;4906670;29;20478;-78
2024/04/01 03:05:25;;;;;;;4.90;4.53;;;13.70;31.40;;;;;;4940560;29;20411;-79
2024/04/01 03:08:46;;;;;;;;;;;;;;;;;;;;;
2024/04/01 03:12:18;;;;;;;;;;;;;;;;;;;;;
2024/04/01 03:18:26;;;;;;;5.90;5.60;;;13.70;30.90;;;;;;4886451;29;20472;-79
2024/04/01 03:25:04;;;;;;;6.20;5.73;;;13.80;30.20;;;;;;4919802;29;20794;-79
2024/04/01 03:31:54;;;;;;;5.67;5.37;;;13.90;30.10;;;;;;4894759;29;20464;-78
2024/04/01 03:35:29;;;;;;;5.83;5.43;;;13.80;30.10;;;;;;4919790;29;20864;-78
2024/04/01 03:48:47;;;;;;;;;;;;;;;;;;;;;
2024/04/01 04:02:56;;;;;;;7.63;6.43;;;13.80;30.00;;;;;;4878436;29;20467;-79
2024/04/01 04:23:51;;;;;;;6.57;6.03;;;13.70;29.80;;;;;;4822594;29;21013;-79
2024/04/01 04:27:05;;;;;;;;;;;;;;;;;;;;;
2024/04/01 04:30:13;;;;;;;7.50;6.43;;;13.70;29.60;;;;;;4879444;29;20955;-80
2024/04/01 04:32:56;;;;;;;6.17;5.97;;;13.70;29.30;;;;;;4912353;29;20499;-81
2024/04/01 04:35:49;;;;;;;6.20;5.80;;;13.70;29.20;;;;;;4903510;29;20413;-78
2024/04/01 04:38:15;;;;;;;7.03;6.53;;;13.70;29.40;;;;;;4906841;29;20438;-81
2024/04/01 04:40:40;;;;;;;7.03;6.00;;;13.70;29.30;;;;;;4921443;29;20417;-80
2024/04/01 04:43:06;;;;;;;7.07;6.63;;;13.70;29.20;;;;;;4908592;29;20202;-80
2024/04/01 04:45:32;;;;;;;6.87;6.27;;;13.60;29.10;;;;;;4909644;29;20184;-80
2024/04/01 04:47:58;;;;;;;6.60;6.23;;;13.60;29.30;;;;;;4931471;29;20213;-79
2024/04/01 04:50:23;;;;;;;5.63;5.43;;;13.60;29.30;;;;;;4912546;29;20431;-80
2024/04/01 04:52:49;;;;;;;6.40;6.00;;;13.60;29.30;;;;;;4923835;29;20278;-80
2024/04/01 04:55:15;;;;;;;6.13;5.70;;;13.60;29.20;;;;;;4925440;29;20189;-80
2024/04/01 04:57:41;;;;;;;7.73;5.87;;;13.50;29.10;;;;;;4902359;29;20192;-78
2024/04/01 05:00:20;;;;;;;6.40;5.90;;;13.40;29.50;;;;;;4922340;29;20472;-80
2024/04/01 05:02:47;;;;;;;7.00;6.60;;;13.40;29.60;;;;;;4900477;29;20216;-80
2024/04/01 05:05:18;;;;;;;6.10;5.80;;;13.40;29.70;;;;;;4917524;29;20455;-79
2024/04/01 05:07:44;;;;;;;6.63;6.33;;;13.20;29.90;;;;;;4900362;29;20434;-81
2024/04/01 05:10:11;;;;;;;6.93;6.63;;;13.20;30.20;;;;;;4898363;29;20422;-80
2024/04/01 05:12:37;;;;;;;6.80;6.50;;;13.20;30.00;;;;;;4916116;29;20440;-80
2024/04/01 05:15:05;;;;;;;6.53;6.23;;;13.20;30.40;;;;;;4918153;29;20873;-79
2024/04/01 05:17:31;;;;;;;7.13;6.73;;;13.10;30.30;;;;;;4900845;29;20424;-80
2024/04/01 05:19:58;;;;;;;6.77;6.57;;;13.00;30.80;;;;;;4931136;29;20451;-80
2024/04/01 05:22:25;;;;;;;5.60;5.30;;;13.00;31.20;;;;;;4938803;23;20494;-77
2024/04/01 05:24:50;;;;;;;6.77;6.47;;;13.00;30.60;;;;;;4920605;29;20456;-76
2024/04/01 05:27:16;;;;;;;6.77;5.70;;;12.90;31.90;;;;;;4924261;29;20519;-76
2024/04/01 05:29:41;;;;;;;5.73;5.53;;;13.00;30.90;;;;;;4926928;29;20668;-77
2024/04/01 05:32:07;;;;;;;6.60;6.10;;;13.00;31.20;;;;;;4920595;29;20216;-77
2024/04/01 05:34:37;;;;;;;6.50;6.10;;;13.10;30.90;;;;;;4929591;29;20197;-76
2024/04/01 05:37:06;;;;;;;7.10;6.70;;;13.00;33.30;;;;;;4927953;29;20195;-77
2024/04/01 05:39:32;;;;;;;6.47;6.17;;;13.00;32.70;;;;;;4930798;29;20487;-77
2024/04/01 05:41:58;;;;;;;6.37;6.07;;;12.90;33.50;;;;;;4922271;29;20481;-77
2024/04/01 05:44:23;;;;;;;8.47;7.60;;;12.90;33.80;;;;;;4946478;29;20446;-77
2024/04/01 05:46:49;;;;;;;7.83;7.33;;;13.00;33.50;;;;;;4931799;29;20191;-78
2024/04/01 05:49:14;;;;;;;6.93;6.53;;;12.90;34.00;;;;;;4931372;29;20682;-77
2024/04/01 05:51:40;;;;;;;7.13;6.73;;;12.80;34.30;;;;;;4917333;29;20232;-76
2024/04/01 05:54:05;;;;;;;7.57;7.27;;;12.60;36.70;;;;;;4939814;29;20349;-79
2024/04/01 05:56:31;;;;;;;7.50;7.00;;;12.60;36.20;;;;;;4922470;29;20271;-78
2024/04/01 05:58:56;;;;;;;7.13;6.53;;;12.50;37.40;;;;;;4953049;29;20203;-77
2024/04/01 06:01:22;;;;;;;6.83;6.53;;;12.50;37.40;;;;;;4930532;29;20219;-76
2024/04/01 06:03:47;;;;;;;6.93;6.53;;;12.30;38.80;;;;;;4925921;29;20212;-77
2024/04/01 06:06:13;;;;;;;7.83;7.47;;;12.20;39.60;;;;;;4932321;29;20180;-78
2024/04/01 06:08:39;;;;;;;6.90;6.60;;;12.20;40.00;;;;;;4936285;29;20274;-77
2024/04/01 06:11:04;;;;;;;7.17;6.67;;;12.20;40.60;;;;;;4928103;29;20197;-78
2024/04/01 06:13:30;;;;;;;6.87;6.43;;;12.20;40.90;;;;;;4933188;29;20211;-78
2024/04/01 06:15:55;;;;;;;5.67;5.47;;;12.30;40.50;;;;;;4927751;29;20193;-80
2024/04/01 06:18:22;;;;;;;6.50;6.20;;;12.20;39.70;;;;;;4935822;29;20516;-79
2024/04/01 06:20:48;;;;;;;5.90;5.57;;;12.20;40.50;;;;;;4930491;29;20678;-77
2024/04/01 06:23:13;;;;;;;6.07;5.67;;;12.20;40.70;;;;;;4927539;29;20461;-77
2024/04/01 06:25:46;;;;;;;5.90;5.60;;;12.40;39.50;;;;;;4917948;29;20716;-79
2024/04/01 06:28:12;;;;;;;6.27;5.97;;;12.50;39.40;;;;;;4917305;29;20181;-79
2024/04/01 06:30:37;;;;;;;5.93;5.50;;;12.60;39.10;;;;;;4927705;29;20446;-78
2024/04/01 06:33:03;;;;;;;6.00;5.80;;;12.70;39.00;;;;;;4937617;29;20755;-78
2024/04/01 06:35:28;;;;;;;6.07;5.73;;;12.80;38.20;;;;;;4928586;29;20247;-77
2024/04/01 06:37:54;;;;;;;5.97;5.67;;;12.90;37.00;;;;;;4921622;29;20196;-77
2024/04/01 06:40:20;;;;;;;5.33;5.13;;;12.60;37.40;;;;;;4916935;29;20200;-78
2024/04/01 06:42:45;;;;;;;4.93;4.83;;;12.60;38.30;;;;;;4941399;29;20227;-78
2024/04/01 06:45:11;;;;;;;5.70;5.50;;;12.70;37.80;;;;;;4930800;29;20224;-78
2024/04/01 06:47:36;;;;;;;5.63;5.33;;;12.80;37.90;;;;;;4928440;29;20608;-78
2024/04/01 06:50:02;;;;;;;5.00;4.80;;;12.90;37.40;;;;;;4938006;29;20222;-78
2024/04/01 06:52:28;;;;;;;5.63;5.43;;;13.00;36.00;;;;;;4922520;29;20223;-79
2024/04/01 06:54:53;;;;;;;5.27;4.97;;;13.10;35.50;;;;;;4919537;29;20485;-79
2024/04/01 06:57:19;;;;;;;5.53;5.27;;;13.00;36.50;;;;;;4919351;29;20558;-77
2024/04/01 06:59:44;;;;;;;5.10;4.90;;;12.70;37.70;;;;;;4915770;29;20324;-79
2024/04/01 07:02:11;;;;;;;5.70;5.50;;;12.60;38.90;;;;;;4918597;29;20232;-77
2024/04/01 07:04:36;;;;;;;6.10;5.80;;;12.40;39.30;;;;;;4928012;29;20188;-77
2024/04/01 07:07:02;;;;;;;5.57;5.27;;;12.30;40.80;;;;;;4937820;29;20428;-77
2024/04/01 07:09:28;;;;;;;6.30;6.00;;;12.20;41.50;;;;;;4938902;29;20192;-78
2024/04/01 07:11:53;;;;;;;5.63;5.40;;;12.20;41.60;;;;;;4937027;29;20192;-78
2024/04/01 07:14:19;;;;;;;5.03;4.83;;;12.30;42.20;;;;;;4926548;29;20223;-77
2024/04/01 07:16:44;;;;;;;6.00;5.70;;;12.00;42.80;;;;;;4928593;29;20188;-77
2024/04/01 07:19:10;;;;;;;5.40;5.10;;;11.90;44.20;;;;;;4923202;29;20223;-79
2024/04/01 07:21:35;;;;;;;5.40;5.20;;;12.00;43.80;;;;;;4927447;29;20223;-77
2024/04/01 07:24:01;;;;;;;5.03;4.63;;;12.20;44.20;;;;;;4930450;29;20219;-77
2024/04/01 07:26:26;;;;;;;5.00;4.80;;;12.20;43.50;;;;;;4919953;29;20192;-79
2024/04/01 07:28:52;;;;;;;4.60;4.40;;;12.20;43.20;;;;;;4931514;29;20325;-77
2024/04/01 07:31:17;;;;;;;4.33;4.23;;;12.40;42.50;;;;;;4917169;29;20193;-76
2024/04/01 07:33:43;;;;;;;4.50;4.30;;;12.50;41.50;;;;;;4913671;29;20223;-78
2024/04/01 07:36:08;;;;;;;5.20;5.00;;;12.60;40.30;;;;;;4916227;29;20197;-78
2024/04/01 07:38:34;;;;;;;5.53;5.27;;;12.70;40.20;;;;;;4913269;29;20272;-78
2024/04/01 07:40:59;;;;;;;5.77;5.57;;;12.80;39.70;;;;;;4923688;29;20205;-76
2024/04/01 07:43:25;;;;;;;4.93;4.73;;;12.60;40.80;;;;;;4911355;29;20706;-76
2024/04/01 07:45:51;;;;;;;5.77;5.47;;;12.40;42.00;;;;;;4922093;29;20377;-77
2024/04/01 07:48:18;;;;;;;5.60;5.40;;;12.20;42.20;;;;;;4909108;29;20431;-77
2024/04/01 07:50:43;;;;;;;5.50;5.30;;;12.20;43.60;;;;;;4910405;29;20188;-77
2024/04/01 07:53:10;;;;;;;5.10;4.90;;;12.20;43.60;;;;;;4924700;29;20453;-77
2024/04/01 07:55:35;;;;;;;4.77;4.60;;;12.20;44.50;;;;;;4907725;29;20564;-78
2024/04/01 07:58:01;;;;;;;4.93;4.73;;;12.10;44.50;;;;;;4917534;29;20487;-77
2024/04/01 08:00:26;;;;;;;5.10;4.90;;;12.00;43.40;;;;;;4923894;29;20193;-77
2024/04/01 08:02:51;;;;;;;5.33;5.10;;;12.00;43.50;;;;;;4908518;29;20221;-78
2024/04/01 08:05:17;;;;;;;5.30;5.20;;;11.90;43.30;;;;;;4915094;29;20208;-78
2024/04/01 08:07:42;;;;;;;5.53;5.17;;;11.80;43.20;;;;;;4929350;29;20208;-77
2024/04/01 08:10:08;;;;;;;5.10;5.00;;;11.80;43.80;;;;;;4917994;29;20251;-78
2024/04/01 08:12:33;;;;;;;4.70;4.60;;;11.70;44.10;;;;;;4916854;29;20221;-78
2024/04/01 08:14:59;;;;;;;5.60;5.47;;;11.80;45.40;;;;;;4930337;29;20204;-77
2024/04/01 08:17:24;;;;;;;4.53;4.43;;;11.80;44.00;;;;;;4913431;29;20239;-77
2024/04/01 08:19:50;;;;;;;4.90;4.80;;;11.80;44.40;;;;;;4922261;29;20200;-77
2024/04/01 08:22:15;;;;;;;5.00;4.80;;;11.80;43.90;;;;;;4887716;29;1021537;-77
2024/04/01 08:24:41;;;;;;;7.53;5.10;;;11.70;43.90;;;;;;4912495;29;20229;-76
2024/04/01 08:27:07;;;;;;;4.93;4.80;;;11.70;44.60;;;;;;4930004;29;20200;-78
2024/04/01 08:29:32;;;;;;;4.90;4.70;;;11.70;45.20;;;;;;4932396;29;20196;-78
2024/04/01 08:31:58;;;;;;;4.57;4.30;;;11.70;46.50;;;;;;4927696;29;20299;-79
2024/04/01 08:34:24;;;;;;;4.67;4.47;;;11.80;46.80;;;;;;4927993;29;20198;-79
2024/04/01 08:36:49;;;;;;;4.83;4.67;;;11.90;46.20;;;;;;4910844;29;20227;-78
2024/04/01 08:39:14;;;;;;;5.20;5.00;;;11.90;43.90;;;;;;4908840;29;20203;-77
2024/04/01 08:41:45;;;;;;;6.00;5.80;;;11.70;43.70;;;;;;4903447;29;20631;-76
2024/04/01 08:44:12;;;;;;;5.13;4.83;;;11.60;43.10;;;;;;4902125;29;20186;-77
2024/04/01 08:46:59;;;;;;;5.37;5.13;;;11.70;43.80;;;;;;4901880;29;20930;-78
2024/04/01 08:49:42;;;;;;;5.20;5.10;;;11.70;45.30;;;;;;4902808;29;20438;-80
2024/04/01 08:52:11;;;;;;;5.30;4.90;;;11.60;43.00;;;;;;4920449;29;20506;-78
2024/04/01 08:54:38;;;;;;;4.43;4.33;;;11.50;42.90;;;;;;4907495;29;20433;-77
2024/04/01 08:57:04;;;;;;;4.37;4.27;;;11.40;42.80;;;;;;4909594;29;20539;-78
2024/04/01 08:59:30;;;;;;;4.53;4.43;;;11.50;43.10;;;;;;4912984;29;20465;-76
2024/04/01 09:01:55;;;;;;;4.43;4.33;;;11.60;43.60;;;;;;4926223;29;20764;-77
2024/04/01 09:04:20;;;;;;;4.00;3.90;;;11.80;43.30;;;;;;4908935;29;20448;-76
2024/04/01 09:06:46;;;;;;;4.90;4.77;;;11.80;43.20;;;;;;4916418;29;20623;-77
2024/04/01 09:09:12;;;;;;;4.23;4.13;;;11.80;41.70;;;;;;4918428;29;20187;-78
2024/04/01 09:11:39;;;;;;;4.90;4.53;;;11.70;41.40;;;;;;4920175;29;20199;-78
2024/04/01 09:14:06;;;;;;;4.90;4.50;;;11.70;39.50;;;;;;4915873;29;20516;-79
2024/04/01 09:16:32;;;;;;;4.10;4.00;;;11.60;37.60;;;;;;4916925;29;20436;-78
2024/04/01 09:19:06;;;;;;;4.90;4.80;;;11.70;39.30;;;;;;4916729;29;21032;-80
2024/04/01 09:21:32;;;;;;;4.87;4.77;;;11.70;37.60;;;;;;4924845;29;20211;-79
2024/04/01 09:23:58;;;;;;;4.30;4.20;;;11.70;37.60;;;;;;4926601;29;20832;-79
2024/04/01 09:26:31;;;;;;;5.00;4.80;;;11.70;36.50;;;;;;4917089;29;20443;-77
2024/04/01 09:28:57;;;;;;;4.97;4.87;;;11.80;36.80;;;;;;4917859;29;20436;-75
2024/04/01 09:31:23;;;;;;;4.87;4.77;;;11.80;35.60;;;;;;4921333;29;20447;-77
2024/04/01 09:33:49;;;;;;;5.20;5.10;;;11.80;34.90;;;;;;4922493;29;20464;-78
2024/04/01 09:36:16;;;;;;;5.77;5.53;;;11.90;35.50;;;;;;4922315;29;20945;-78
2024/04/01 09:38:42;;;;;;;5.07;4.97;;;11.80;34.00;;;;;;4909822;29;20436;-77
2024/04/01 09:41:08;;;;;;;4.70;4.60;;;11.90;34.30;;;;;;4910010;29;20988;-77
2024/04/01 09:43:34;;;;;;;5.23;5.13;;;11.90;32.80;;;;;;4912298;29;20252;-79
2024/04/01 09:46:00;;;;;;;5.23;5.13;;;11.90;33.20;;;;;;4929359;29;20461;-79
2024/04/01 09:48:27;;;;;;;6.13;5.97;;;12.00;34.80;;;;;;4915041;29;20182;-79
2024/04/01 09:50:56;;;;;;;5.53;5.43;;;12.00;34.60;;;;;;4921357;29;20433;-77
2024/04/01 09:53:23;;;;;;;5.53;5.43;;;12.00;32.60;;;;;;4917011;29;20464;-80
2024/04/01 09:56:26;;;;;;;5.70;5.50;;;11.90;32.50;;;;;;4916526;29;20515;-78
2024/04/01 09:59:12;;;;;;;5.17;4.97;;;11.80;32.10;;;;;;4921383;29;21048;-80
2024/04/01 10:02:06;;;;;;;5.47;5.37;;;11.70;31.60;;;;;;4919320;29;20468;-78
2024/04/01 10:04:49;;;;;;;4.90;4.80;;;11.60;32.00;;;;;;4917182;29;20900;-81
2024/04/01 10:08:03;;;;;;;4.67;4.57;;;11.70;31.30;;;;;;4913333;29;20451;-81
2024/04/01 10:10:53;;;;;;;5.17;5.07;;;11.80;30.50;;;;;;4933307;29;20429;-80
2024/04/01 10:14:11;;;;;;;4.60;4.50;;;11.90;29.40;;;;;;4922339;29;20459;-80
2024/04/01 10:17:16;;;;;;;5.30;5.20;;;12.00;29.80;;;;;;4919063;29;20433;-77
2024/04/01 10:20:16;;;;;;;4.83;4.63;;;12.00;26.90;;;;;;4921714;29;20861;-80
2024/04/01 10:23:43;;;;;;;4.40;4.30;;;11.90;27.20;;;;;;4934172;29;20475;-77
2024/04/01 10:26:40;;;;;;;4.57;4.47;;;11.90;27.10;;;;;;4922152;29;20438;-79
2024/04/01 10:29:45;;;;;;;4.90;4.80;;;11.80;27.60;;;;;;4923213;29;20415;-79
2024/04/01 10:32:51;;;;;;;5.50;5.40;;;11.90;28.80;;;;;;4912746;29;20463;-80
2024/04/01 10:35:55;;;;;;;5.10;5.00;;;11.90;29.30;;;;;;4938557;29;20530;-79
2024/04/01 10:39:05;;;;;;;5.37;5.17;;;11.90;26.80;;;;;;4915836;29;20445;-80
2024/04/01 10:41:57;;;;;;;4.60;4.50;;;11.90;27.80;;;;;;4919299;29;20468;-80
2024/04/01 10:44:51;;;;;;;5.03;4.93;;;11.90;25.50;;;;;;4919208;29;20431;-78
2024/04/01 10:47:55;;;;;;;4.40;4.30;;;11.80;25.60;;;;;;4914536;29;20433;-78
2024/04/01 10:50:26;;;;;;;5.00;4.90;;;11.80;25.20;;;;;;4914913;29;20575;-79
2024/04/01 10:53:31;;;;;;;4.90;4.80;;;11.80;27.00;;;;;;4922706;29;20457;-79
2024/04/01 10:56:21;;;;;;;4.07;3.97;;;11.90;26.20;;;;;;4937780;29;20450;-77
2024/04/01 10:59:05;;;;;;;4.70;4.60;;;11.90;24.60;;;;;;4922444;29;20580;-77
2024/04/01 11:01:58;;;;;;;4.77;4.57;;;11.90;24.50;;;;;;4913393;29;20992;-76
2024/04/01 11:04:27;;;;;;;3.93;3.83;;;11.90;24.50;;;;;;4906584;29;20425;-77
2024/04/01 11:07:14;;;;;;;5.20;5.00;;;11.80;24.40;;;;;;4921960;29;20813;-78
2024/04/01 11:10:08;;;;;;;5.13;4.93;;;11.90;24.70;;;;;;4917637;29;20512;-77
2024/04/01 11:12:44;;;;;;;4.77;4.67;;;11.90;24.50;;;;;;4917522;29;20508;-78
2024/04/01 11:15:10;;;;;;;4.77;4.67;;;11.90;24.50;;;;;;4922186;29;20442;-79
2024/04/01 11:17:36;;;;;;;4.93;4.73;;;11.80;24.40;;;;;;4938341;29;20428;-78
2024/04/01 11:20:27;;;;;;;5.83;5.33;;;11.80;24.40;;;;;;4930542;29;20496;-78
2024/04/01 11:22:59;;;;;;;4.57;4.47;;;11.80;24.40;;;;;;4966393;23;20998;-81
2024/04/01 11:25:31;;;;;;;4.80;4.60;;;11.70;24.40;;;;;;4956931;29;20430;-79
2024/04/01 11:28:09;;;;;;;4.67;4.57;;;11.60;24.30;;;;;;4939259;29;20439;-78
2024/04/01 11:30:36;;;;;;;5.07;4.87;;;11.70;26.90;;;;;;4932560;29;20573;-78
2024/04/01 11:33:07;;;;;;;5.07;4.97;;;11.70;29.00;;;;;;4920701;29;20522;-80
2024/04/01 11:35:35;;;;;;;4.13;4.03;;;11.70;27.10;;;;;;4937984;29;20490;-82
2024/04/01 11:38:27;;;;;;;5.07;4.87;;;11.80;27.10;;;;;;4938099;29;20435;-80
2024/04/01 11:40:58;;;;;;;5.47;5.13;;;11.80;28.80;;;;;;4920562;29;20836;-80
2024/04/01 11:43:26;;;;;;;5.47;5.27;;;11.60;29.20;;;;;;4919669;29;20588;-78
2024/04/01 11:45:53;;;;;;;5.60;5.50;;;11.60;29.60;;;;;;4919510;29;20436;-78
2024/04/01 11:48:19;;;;;;;4.80;4.60;;;11.60;31.20;;;;;;4948903;29;20435;-79
2024/04/01 11:50:53;;;;;;;5.10;5.00;;;11.70;32.20;;;;;;4942436;29;21082;-81
2024/04/01 11:53:19;;;;;;;4.77;4.67;;;11.70;29.70;;;;;;4941871;29;20451;-81
2024/04/01 11:55:51;;;;;;;5.27;5.17;;;11.80;27.80;;;;;;4940616;29;20431;-82
2024/04/01 11:58:18;;;;;;;4.90;4.80;;;11.90;27.80;;;;;;4929354;29;20542;-80
2024/04/01 12:00:54;;;;;;;5.03;4.93;;;12.10;26.70;;;;;;4928805;29;20526;-80
2024/04/01 12:03:21;;;;;;;5.00;4.90;;;12.10;28.20;;;;;;4940300;29;20510;-80
2024/04/01 12:06:03;;;;;;;5.70;5.60;;;12.10;27.30;;;;;;4957157;29;20857;-80
2024/04/01 12:08:30;;;;;;;5.60;5.50;;;12.10;26.00;;;;;;4920956;29;20468;-80
2024/04/01 12:10:58;;;;;;;4.97;4.87;;;12.00;26.20;;;;;;4945781;29;20546;-80
2024/04/01 12:13:26;;;;;;;4.57;4.47;;;11.80;25.70;;;;;;4930759;29;20467;-80
2024/04/01 12:15:54;;;;;;;4.53;4.43;;;11.90;26.00;;;;;;4924418;29;20464;-81
2024/04/01 12:18:20;;;;;;;4.83;4.73;;;12.10;25.60;;;;;;4938316;29;20459;-80
2024/04/01 12:20:51;;;;;;;4.87;4.77;;;12.10;25.00;;;;;;4921176;29;20440;-79
2024/04/01 12:23:20;;;;;;;5.57;5.37;;;12.20;24.70;;;;;;4957341;29;20958;-80
2024/04/01 12:25:46;;;;;;;4.43;4.33;;;12.20;24.70;;;;;;4940191;29;20447;-80
2024/04/01 12:28:12;;;;;;;4.63;4.53;;;12.20;22.30;;;;;;4937102;29;20540;-80
2024/04/01 12:30:38;;;;;;;4.57;4.47;;;12.10;23.10;;;;;;4927455;29;20274;-80
2024/04/01 12:33:09;;;;;;;4.80;4.70;;;12.10;24.60;;;;;;4939639;29;20479;-81
2024/04/01 12:35:36;;;;;;;4.70;4.60;;;12.20;24.10;;;;;;4940441;29;20434;-79
2024/04/01 12:38:04;;;;;;;5.37;5.20;;;12.40;21.70;;;;;;4940058;29;20439;-79
2024/04/01 12:40:41;;;;;;;4.40;4.30;;;12.40;21.50;;;;;;4957693;29;20450;-80
2024/04/01 12:43:07;;;;;;;4.80;4.70;;;12.40;21.30;;;;;;4939386;29;20597;-79
2024/04/01 12:45:33;;;;;;;4.77;4.67;;;12.50;21.20;;;;;;4940477;29;20462;-79
2024/04/01 12:48:09;;;;;;;4.80;4.70;;;12.40;21.00;;;;;;4955428;29;20193;-81
2024/04/01 12:50:35;;;;;;;5.00;4.90;;;12.40;20.50;;;;;;4938511;29;20769;-79
2024/04/01 12:53:28;;;;;;;4.57;4.47;;;12.40;20.40;;;;;;4938720;29;20471;-80
2024/04/01 12:56:16;;;;;;;4.10;4.00;;;12.40;20.70;;;;;;4921509;29;20458;-80
2024/04/01 12:59:12;;;;;;;4.50;4.40;;;12.40;21.00;;;;;;4921774;29;20526;-80
2024/04/01 13:01:51;;;;;;;4.70;4.53;;;12.50;20.80;;;;;;4921594;29;20522;-80
2024/04/01 13:04:40;;;;;;;4.43;4.33;;;12.60;19.90;;;;;;4931790;29;20470;-81
2024/04/01 13:07:34;;;;;;;3.73;3.63;;;12.50;19.40;;;;;;4955330;29;20435;-80
2024/04/01 13:10:07;;;;;;;4.07;3.97;;;12.40;20.10;;;;;;4937339;29;20808;-80
2024/04/01 13:12:57;;;;;;;4.60;4.50;;;12.30;19.90;;;;;;4950369;29;20511;-81
2024/04/01 13:15:34;;;;;;;4.30;4.20;;;12.40;19.50;;;;;;4921291;29;20444;-81
2024/04/01 13:18:27;;;;;;;4.30;4.20;;;12.40;19.40;;;;;;4937506;29;20423;-81
2024/04/01 13:21:08;;;;;;;4.40;4.30;;;12.50;18.70;;;;;;4915126;29;20627;-80
2024/04/01 13:23:40;;;;;;;3.90;3.80;;;12.60;18.50;;;;;;4944411;29;20830;-81
2024/04/01 13:26:09;;;;;;;4.03;3.93;;;12.70;18.30;;;;;;4939964;29;20431;-81
2024/04/01 13:28:45;;;;;;;3.97;3.87;;;12.70;18.70;;;;;;4956054;29;20458;-81
2024/04/01 13:31:25;;;;;;;4.57;4.47;;;12.60;18.40;;;;;;4939271;29;20468;-80
2024/04/01 13:34:22;;;;;;;4.47;4.37;;;12.50;18.70;;;;;;4938944;29;20473;-77
2024/04/01 13:37:15;;;;;;;4.27;4.17;;;12.30;18.30;;;;;;4936668;29;20461;-79
2024/04/01 13:40:02;;;;;;;4.43;4.33;;;12.20;18.80;;;;;;4954759;29;20431;-80
2024/04/01 13:42:31;;;;;;;3.93;3.83;;;12.20;19.10;;;;;;4934441;29;20511;-78
2024/04/01 13:45:09;;;;;;;4.10;4.00;;;12.20;18.90;;;;;;4925203;29;20522;-78
2024/04/01 13:47:44;;;;;;;4.27;4.17;;;12.30;18.90;;;;;;4923335;29;20443;-80
2024/04/01 13:50:37;;;;;;;4.43;4.33;;;12.50;19.00;;;;;;4921525;29;20770;-80
2024/04/01 13:53:15;;;;;;;4.93;4.73;;;12.50;18.50;;;;;;4941188;29;20537;-79
2024/04/01 13:56:11;;;;;;;5.13;5.03;;;12.60;18.40;;;;;;4960655;29;20418;-79
2024/04/01 13:59:02;;;;;;;3.93;3.83;;;12.70;18.40;;;;;;4937827;29;20860;-79
2024/04/01 14:01:53;;;;;;;3.83;3.67;;;12.60;17.60;;;;;;4940049;29;20440;-80
2024/04/01 14:04:36;;;;;;;4.23;4.13;;;12.60;18.40;;;;;;4924121;29;20441;-80
2024/04/01 14:07:02;;;;;;;4.23;4.13;;;12.50;16.60;;;;;;4939703;29;20436;-80
2024/04/01 14:09:46;;;;;;;4.10;4.00;;;12.50;17.80;;;;;;4936328;29;20453;-79
2024/04/01 14:12:25;;;;;;;4.23;4.13;;;12.50;17.50;;;;;;4948533;29;20226;-79
2024/04/01 14:15:32;;;;;;;5.03;4.93;;;12.60;16.70;;;;;;4940553;29;20507;-79
2024/04/01 14:18:04;;;;;;;4.50;4.30;;;12.70;16.80;;;;;;4882488;29;20451;-80
2024/04/01 14:20:46;;;;;;;5.30;5.17;;;12.80;15.80;;;;;;4914805;29;20432;-80
2024/04/01 14:23:12;;;;;;;4.47;4.37;;;12.70;16.00;;;;;;4937685;29;20470;-80
2024/04/01 14:25:45;;;;;;;4.30;4.20;;;12.70;15.30;;;;;;4939084;29;20531;-80
2024/04/01 14:28:11;;;;;;;5.63;5.23;;;12.70;15.30;;;;;;4938267;29;20495;-79
2024/04/01 14:31:10;;;;;;;4.00;3.90;;;12.80;15.10;;;;;;4923080;29;20439;-79
2024/04/01 14:33:36;;;;;;;6.00;4.70;;;12.80;15.00;;;;;;4921414;29;20451;-79
2024/04/01 14:36:01;;;;;;;4.47;4.27;;;12.80;16.30;;;;;;4929693;29;20433;-80
2024/04/01 14:38:28;;;;;;;4.13;4.03;;;12.80;15.30;;;;;;4937016;29;20215;-80
2024/04/01 14:40:54;;;;;;;4.53;4.43;;;12.70;15.30;;;;;;4937225;29;20536;-81
2024/04/01 14:43:20;;;;;;;4.10;3.90;;;12.70;15.80;;;;;;4940270;29;20466;-81
2024/04/01 14:45:46;;;;;;;4.83;4.60;;;12.70;15.80;;;;;;4940134;29;20423;-80
2024/04/01 14:48:14;;;;;;;5.00;4.87;;;12.70;15.80;;;;;;4939995;29;20278;-79
2024/04/01 14:50:40;;;;;;;5.00;4.80;;;12.80;16.70;;;;;;4940593;29;20190;-80
2024/04/01 14:53:07;;;;;;;4.63;4.43;;;12.80;16.80;;;;;;4957417;29;20477;-79
2024/04/01 14:55:33;;;;;;;4.20;4.10;;;12.80;16.10;;;;;;4957994;28;20443;-80
2024/04/01 14:58:00;;;;;;;3.97;3.87;;;12.80;16.80;;;;;;4940069;29;20952;-79
2024/04/01 15:00:26;;;;;;;3.50;3.40;;;12.80;16.80;;;;;;4940813;29;20599;-79
2024/04/01 15:02:54;;;;;;;4.90;4.70;;;12.80;16.80;;;;;;4940408;29;20533;-79
2024/04/01 15:05:20;;;;;;;3.77;3.60;;;12.80;17.20;;;;;;4924528;29;20442;-80
2024/04/01 15:07:46;;;;;;;4.20;4.00;;;12.70;17.00;;;;;;4951460;29;20427;-79
2024/04/01 15:10:14;;;;;;;4.27;4.17;;;12.70;17.60;;;;;;4932604;29;20877;-79
2024/04/01 15:12:41;;;;;;;3.60;3.50;;;12.70;17.20;;;;;;4934646;29;20467;-79
2024/04/01 15:15:08;;;;;;;4.30;4.20;;;12.60;17.50;;;;;;4920714;29;20531;-79
2024/04/01 15:17:35;;;;;;;3.40;3.30;;;12.60;18.10;;;;;;4933458;29;20458;-79
2024/04/01 15:20:05;;;;;;;3.20;3.10;;;12.50;18.00;;;;;;4924412;29;20963;-78
2024/04/01 15:22:34;;;;;;;4.30;4.20;;;12.60;18.20;;;;;;4920666;29;20480;-79
2024/04/01 15:25:00;;;;;;;4.10;4.00;;;12.70;18.70;;;;;;4938029;29;20527;-80
2024/04/01 15:27:25;;;;;;;4.30;4.10;;;12.70;18.00;;;;;;4921112;29;20904;-80
2024/04/01 15:29:51;;;;;;;3.67;3.57;;;12.60;18.40;;;;;;4952440;29;20807;-81
2024/04/01 15:32:18;;;;;;;4.57;4.47;;;12.60;18.40;;;;;;4957411;29;20242;-79
2024/04/01 15:34:45;;;;;;;3.73;3.53;;;12.50;18.90;;;;;;4940049;29;20278;-80
2024/04/01 15:37:11;;;;;;;3.60;3.50;;;12.50;18.50;;;;;;4939210;29;20423;-80
2024/04/01 15:39:36;;;;;;;3.43;3.33;;;12.50;18.60;;;;;;4955502;29;20833;-79
2024/04/01 15:42:03;;;;;;;3.63;3.53;;;12.60;18.60;;;;;;4939265;29;20291;-80
2024/04/01 15:44:29;;;;;;;3.47;3.37;;;12.50;18.50;;;;;;4935679;29;20549;-79
2024/04/01 15:46:56;;;;;;;3.50;3.40;;;12.50;19.40;;;;;;4920616;29;20854;-80
2024/04/01 15:49:23;;;;;;;3.57;3.47;;;12.50;19.00;;;;;;4920509;29;20435;-79
2024/04/01 15:51:50;;;;;;;3.70;3.60;;;12.50;19.20;;;;;;4920456;29;20471;-80
2024/04/01 15:54:16;;;;;;;3.20;3.10;;;12.50;18.70;;;;;;4920416;29;20424;-79
2024/04/01 15:56:49;;;;;;;4.40;4.00;;;12.40;18.90;;;;;;4920130;29;20647;-79
2024/04/01 15:59:17;;;;;;;3.70;3.60;;;12.40;18.90;;;;;;4920511;29;20450;-79
2024/04/01 16:01:43;;;;;;;4.23;4.13;;;12.30;19.10;;;;;;4920365;29;20460;-79
2024/04/01 16:04:09;;;;;;;3.87;3.77;;;12.30;19.50;;;;;;4933381;29;20434;-79
2024/04/01 16:06:35;;;;;;;4.80;4.60;;;12.30;19.40;;;;;;4937433;29;20488;-80
2024/04/01 16:09:01;;;;;;;4.10;4.00;;;12.40;19.80;;;;;;4939546;29;20467;-79
2024/04/01 16:11:28;;;;;;;4.73;4.63;;;12.40;19.60;;;;;;4938764;29;20203;-80
2024/04/01 16:13:53;;;;;;;4.20;4.10;;;12.40;20.00;;;;;;4938535;29;20432;-79
2024/04/01 16:16:19;;;;;;;4.33;4.23;;;12.40;20.10;;;;;;4939176;29;20431;-80
2024/04/01 16:19:02;;;;;;;4.40;4.30;;;12.40;19.90;;;;;;4944762;29;20172;-79
2024/04/01 16:21:34;;;;;;;4.43;4.23;;;12.50;19.90;;;;;;4953843;29;20475;-79
2024/04/01 16:24:05;;;;;;;4.10;4.00;;;12.50;19.80;;;;;;4940230;29;20487;-80